Wetterdaten: Woche 26.12.16 - 01.01.17 (KW52)
Datum Zeit Temp. A. Feuchte A. Luftdruck Regen Wind Richtung Sonnenschein ET UV Solar Taupunkt Windchill Windben Empfang
26.12.2016 00:00 7,7 C 94 % 1027,0 hPa 0,0 l/m 12,8 km/h (3 Bft) W-SW 0,00 h 0,000 mm 0,0 UV-I 0 W/m 6,8 C 3,6 C 18,4 km/h (3 Bft) 98,43 %
26.12.2016 01:00 8,0 C 92 % 1027,2 hPa 0,0 l/m 10,2 km/h (2 Bft) W-SW 0,00 h 0,000 mm 0,0 UV-I 0 W/m 6,8 C 5,4 C 16,2 km/h (3 Bft) 98,30 %
26.12.2016 02:00 8,5 C 90 % 1027,5 hPa 0,0 l/m 11,9 km/h (2 Bft) W-SW 0,00 h 0,000 mm 0,0 UV-I 0 W/m 7,0 C 4,9 C 18,1 km/h (3 Bft) 98,44 %
26.12.2016 03:00 8,5 C 90 % 1027,6 hPa 0,0 l/m 11,6 km/h (2 Bft) W-SW 0,00 h 0,025 mm 0,0 UV-I 0 W/m 7,0 C 5,1 C 16,6 km/h (3 Bft) 98,55 %
26.12.2016 04:00 8,4 C 90 % 1027,5 hPa 0,0 l/m 8,8 km/h (2 Bft) W-SW 0,00 h 0,026 mm 0,0 UV-I 0 W/m 6,9 C 6,6 C 13,5 km/h (3 Bft) 97,48 %
26.12.2016 05:00 8,3 C 89 % 1027,3 hPa 0,0 l/m 9,0 km/h (2 Bft) W-SW 0,00 h 0,000 mm 0,0 UV-I 0 W/m 6,6 C 6,3 C 14,7 km/h (3 Bft) 98,89 %
26.12.2016 06:00 8,5 C 87 % 1027,2 hPa 0,0 l/m 11,1 km/h (2 Bft) W-SW 0,00 h 0,025 mm 0,0 UV-I 0 W/m 6,6 C 5,5 C 16,6 km/h (3 Bft) 97,64 %
26.12.2016 07:00 8,5 C 86 % 1027,1 hPa 0,0 l/m 11,3 km/h (2 Bft) SW 0,00 h 0,026 mm 0,0 UV-I 5 W/m 6,3 C 5,2 C 17,4 km/h (3 Bft) 98,84 %
26.12.2016 08:00 8,5 C 84 % 1027,3 hPa 0,0 l/m 9,1 km/h (2 Bft) W-SW 0,00 h 0,025 mm 0,0 UV-I 13 W/m 6,0 C 6,6 C 14,3 km/h (3 Bft) 97,44 %
26.12.2016 09:00 8,9 C 83 % 1027,2 hPa 0,0 l/m 11,8 km/h (2 Bft) W-SW 0,00 h 0,025 mm 0,0 UV-I 65 W/m 6,2 C 5,4 C 17,8 km/h (3 Bft) 99,00 %
26.12.2016 10:00 9,5 C 79 % 1027,1 hPa 0,0 l/m 8,0 km/h (2 Bft) W 0,00 h 0,051 mm 0,0 UV-I 83 W/m 6,1 C 8,1 C 12,8 km/h (3 Bft) 97,70 %
26.12.2016 11:00 9,4 C 84 % 1026,7 hPa 0,0 l/m 6,8 km/h (2 Bft) W-SW 0,00 h 0,051 mm 0,0 UV-I 102 W/m 6,8 C 8,7 C 11,4 km/h (2 Bft) 99,37 %
26.12.2016 12:00 8,8 C 92 % 1026,1 hPa 0,0 l/m 4,4 km/h (1 Bft) W 0,00 h 0,051 mm 0,0 UV-I 63 W/m 7,5 C 8,6 C 7,5 km/h (2 Bft) 97,70 %
26.12.2016 13:00 8,5 C 96 % 1025,7 hPa 0,0 l/m 1,0 km/h (0 Bft) W-NW 0,00 h 0,025 mm 0,0 UV-I 51 W/m 7,8 C 8,5 C 2,8 km/h (1 Bft) 99,01 %
26.12.2016 14:00 8,4 C 95 % 1025,8 hPa 0,0 l/m 2,5 km/h (1 Bft) W-NW 0,00 h 0,026 mm 0,0 UV-I 40 W/m 7,7 C 8,4 C 6,1 km/h (2 Bft) 97,58 %
26.12.2016 15:00 8,2 C 94 % 1025,8 hPa 0,0 l/m 4,0 km/h (1 Bft) W 0,00 h 0,025 mm 0,0 UV-I 16 W/m 7,3 C 8,2 C 6,6 km/h (2 Bft) 98,87 %
26.12.2016 16:00 8,4 C 92 % 1026,3 hPa 0,0 l/m 8,4 km/h (2 Bft) W 0,00 h 0,000 mm 0,0 UV-I 5 W/m 7,1 C 6,9 C 13,8 km/h (3 Bft) 97,87 %
26.12.2016 17:00 8,3 C 89 % 1027,1 hPa 0,2 l/m 10,6 km/h (2 Bft) W-SW 0,00 h 0,000 mm 0,0 UV-I 0 W/m 6,7 C 5,6 C 16,0 km/h (3 Bft) 99,16 %
26.12.2016 18:00 8,4 C 91 % 1027,6 hPa 0,2 l/m 14,1 km/h (3 Bft) W-SW 0,00 h 0,025 mm 0,0 UV-I 0 W/m 7,0 C 3,7 C 21,3 km/h (4 Bft) 97,53 %
26.12.2016 19:00 8,3 C 91 % 1028,1 hPa 0,2 l/m 15,7 km/h (3 Bft) SW 0,00 h 0,026 mm 0,0 UV-I 0 W/m 6,9 C 2,8 C 22,8 km/h (4 Bft) 98,86 %
26.12.2016 20:00 7,8 C 94 % 1028,2 hPa 0,6 l/m 16,6 km/h (3 Bft) W-SW 0,00 h 0,025 mm 0,0 UV-I 0 W/m 6,9 C 1,8 C 25,2 km/h (4 Bft) 97,99 %
26.12.2016 21:00 7,6 C 96 % 1028,4 hPa 0,4 l/m 15,5 km/h (3 Bft) W-SW 0,00 h 0,000 mm 0,0 UV-I 0 W/m 7,0 C 2,1 C 24,5 km/h (4 Bft) 99,37 %
26.12.2016 22:00 6,5 C 88 % 1029,6 hPa 0,4 l/m 17,7 km/h (3 Bft) W 0,00 h 0,000 mm 0,0 UV-I 0 W/m 4,7 C -0,2 C 29,8 km/h (5 Bft) 98,03 %
26.12.2016 23:00 6,0 C 84 % 1030,5 hPa 0,0 l/m 18,4 km/h (3 Bft) W 0,00 h 0,026 mm 0,0 UV-I 0 W/m 3,6 C -1,2 C 31,1 km/h (5 Bft) 99,00 %
27.12.2016 00:00 5,3 C 80 % 1031,4 hPa 0,0 l/m 15,4 km/h (3 Bft) W 0,00 h 0,000 mm 0,0 UV-I 0 W/m 2,2 C -0,5 C 26,5 km/h (4 Bft) 98,56 %
27.12.2016 01:00 4,3 C 82 % 1032,3 hPa 0,0 l/m 11,9 km/h (2 Bft) W 0,00 h 0,025 mm 0,0 UV-I 0 W/m 1,4 C 0,2 C 21,1 km/h (4 Bft) 98,11 %
27.12.2016 02:00 3,7 C 81 % 1033,1 hPa 0,0 l/m 14,2 km/h (3 Bft) W-SW 0,00 h 0,026 mm 0,0 UV-I 0 W/m 0,8 C -1,9 C 22,0 km/h (4 Bft) 98,79 %
27.12.2016 03:00 3,8 C 81 % 1033,1 hPa 0,0 l/m 16,8 km/h (3 Bft) W-SW 0,00 h 0,025 mm 0,0 UV-I 0 W/m 0,8 C -3,2 C 26,2 km/h (4 Bft) 97,86 %
27.12.2016 04:00 3,7 C 78 % 1033,1 hPa 0,0 l/m 18,4 km/h (3 Bft) W-SW 0,00 h 0,026 mm 0,0 UV-I 0 W/m 0,2 C -4,1 C 30,3 km/h (5 Bft) 98,78 %
27.12.2016 05:00 3,3 C 80 % 1033,6 hPa 0,0 l/m 15,3 km/h (3 Bft) W 0,00 h 0,025 mm 0,0 UV-I 0 W/m 0,1 C -3,0 C 23,1 km/h (4 Bft) 97,62 %
27.12.2016 06:00 3,1 C 79 % 1034,2 hPa 0,0 l/m 17,6 km/h (3 Bft) W-SW 0,00 h 0,025 mm 0,0 UV-I 0 W/m -0,2 C -4,5 C 27,5 km/h (4 Bft) 99,11 %
27.12.2016 07:00 2,5 C 79 % 1034,4 hPa 0,0 l/m 22,7 km/h (4 Bft) W-SW 0,00 h 0,026 mm 0,0 UV-I 7 W/m -0,7 C -7,4 C 33,1 km/h (5 Bft) 97,73 %
27.12.2016 08:00 2,3 C 78 % 1034,3 hPa 0,0 l/m 24,9 km/h (4 Bft) W-SW 0,43 h 0,051 mm 0,0 UV-I 36 W/m -1,0 C -8,4 C 37,6 km/h (5 Bft) 99,00 %
27.12.2016 09:00 3,0 C 77 % 1034,5 hPa 0,0 l/m 22,5 km/h (4 Bft) W-SW 0,67 h 0,050 mm 0,0 UV-I 129 W/m -0,7 C -6,7 C 34,3 km/h (5 Bft) 98,18 %
27.12.2016 10:00 3,3 C 77 % 1035,4 hPa 0,0 l/m 21,1 km/h (4 Bft) W-SW 0,00 h 0,077 mm 0,0 UV-I 62 W/m -0,3 C -5,7 C 34,2 km/h (5 Bft) 98,81 %
27.12.2016 11:00 3,6 C 76 % 1035,4 hPa 0,0 l/m 22,5 km/h (4 Bft) W-SW 0,13 h 0,076 mm 0,0 UV-I 133 W/m -0,1 C -5,9 C 36,0 km/h (5 Bft) 97,24 %
27.12.2016 12:00 3,7 C 76 % 1035,6 hPa 0,0 l/m 21,2 km/h (4 Bft) W-SW 0,00 h 0,101 mm 0,0 UV-I 56 W/m -0,1 C -5,2 C 32,6 km/h (5 Bft) 99,08 %
27.12.2016 13:00 3,8 C 76 % 1035,6 hPa 0,0 l/m 22,3 km/h (4 Bft) W-SW 0,00 h 0,077 mm 0,0 UV-I 51 W/m -0,0 C -5,5 C 34,4 km/h (5 Bft) 97,24 %
27.12.2016 14:00 4,1 C 76 % 1035,7 hPa 0,0 l/m 22,5 km/h (4 Bft) W-SW 0,10 h 0,050 mm 0,0 UV-I 70 W/m 0,2 C -5,3 C 36,6 km/h (5 Bft) 98,91 %
27.12.2016 15:00 4,0 C 76 % 1036,1 hPa 0,0 l/m 22,7 km/h (4 Bft) W-SW 0,00 h 0,077 mm 0,0 UV-I 29 W/m 0,2 C -5,4 C 34,4 km/h (5 Bft) 97,48 %
27.12.2016 16:00 4,0 C 76 % 1036,1 hPa 0,0 l/m 24,5 km/h (4 Bft) W-SW 0,00 h 0,050 mm 0,0 UV-I 5 W/m 0,2 C -6,1 C 37,5 km/h (5 Bft) 99,48 %
27.12.2016 17:00 3,8 C 77 % 1036,3 hPa 0,0 l/m 21,3 km/h (4 Bft) W-SW 0,00 h 0,051 mm 0,0 UV-I 0 W/m 0,3 C -5,2 C 32,7 km/h (5 Bft) 97,57 %
27.12.2016 18:00 4,1 C 75 % 1037,0 hPa 0,0 l/m 22,5 km/h (4 Bft) W 0,00 h 0,051 mm 0,0 UV-I 0 W/m 0,1 C -5,1 C 35,9 km/h (5 Bft) 98,95 %
27.12.2016 19:00 4,2 C 74 % 1037,5 hPa 0,0 l/m 22,7 km/h (4 Bft) W 0,00 h 0,051 mm 0,0 UV-I 0 W/m 0,1 C -5,2 C 35,0 km/h (5 Bft) 97,86 %
27.12.2016 20:00 4,2 C 75 % 1037,4 hPa 0,0 l/m 19,9 km/h (4 Bft) W-SW 0,00 h 0,051 mm 0,0 UV-I 0 W/m 0,2 C -4,1 C 31,2 km/h (5 Bft) 99,12 %
27.12.2016 21:00 4,2 C 75 % 1037,3 hPa 0,0 l/m 22,9 km/h (4 Bft) W-SW 0,00 h 0,050 mm 0,0 UV-I 0 W/m 0,3 C -5,1 C 36,1 km/h (5 Bft) 97,92 %
27.12.2016 22:00 4,0 C 78 % 1037,3 hPa 0,0 l/m 23,4 km/h (4 Bft) W 0,00 h 0,051 mm 0,0 UV-I 0 W/m 0,4 C -5,7 C 36,9 km/h (5 Bft) 98,81 %
27.12.2016 23:00 3,8 C 81 % 1037,5 hPa 0,0 l/m 21,8 km/h (4 Bft) W 0,00 h 0,051 mm 0,0 UV-I 0 W/m 0,9 C -5,3 C 34,4 km/h (5 Bft) 98,02 %
28.12.2016 00:00 3,7 C 84 % 1036,9 hPa 0,0 l/m 23,1 km/h (4 Bft) W-SW 0,00 h 0,000 mm 0,0 UV-I 0 W/m 1,3 C -6,0 C 35,7 km/h (5 Bft) 98,96 %
28.12.2016 01:00 3,7 C 87 % 1036,9 hPa 0,0 l/m 24,9 km/h (4 Bft) W-SW 0,00 h 0,025 mm 0,0 UV-I 0 W/m 1,7 C -6,7 C 37,5 km/h (5 Bft) 98,65 %
28.12.2016 02:00 3,7 C 87 % 1037,0 hPa 0,0 l/m 25,6 km/h (4 Bft) W-SW 0,00 h 0,026 mm 0,0 UV-I 0 W/m 1,8 C -6,8 C 39,6 km/h (6 Bft) 98,30 %
28.12.2016 03:00 4,0 C 85 % 1037,0 hPa 0,0 l/m 22,8 km/h (4 Bft) W 0,00 h 0,025 mm 0,0 UV-I 0 W/m 1,7 C -5,4 C 37,2 km/h (5 Bft) 98,18 %
28.12.2016 04:00 4,2 C 84 % 1036,8 hPa 0,0 l/m 24,0 km/h (4 Bft) W-SW 0,00 h 0,026 mm 0,0 UV-I 0 W/m 1,8 C -5,7 C 37,8 km/h (5 Bft) 97,87 %
28.12.2016 05:00 3,9 C 86 % 1036,7 hPa 0,0 l/m 23,9 km/h (4 Bft) W-SW 0,00 h 0,025 mm 0,0 UV-I 0 W/m 1,8 C -6,0 C 37,8 km/h (5 Bft) 98,99 %
28.12.2016 06:00 3,8 C 87 % 1036,6 hPa 0,0 l/m 25,2 km/h (4 Bft) W-SW 0,00 h 0,025 mm 0,0 UV-I 0 W/m 1,9 C -6,6 C 38,4 km/h (5 Bft) 98,22 %
28.12.2016 07:00 4,0 C 86 % 1037,1 hPa 0,0 l/m 23,7 km/h (4 Bft) W-SW 0,00 h 0,026 mm 0,0 UV-I 0 W/m 1,9 C -5,7 C 37,5 km/h (5 Bft) 98,86 %
28.12.2016 08:00 4,1 C 86 % 1037,7 hPa 0,0 l/m 21,4 km/h (4 Bft) W-SW 0,00 h 0,025 mm 0,0 UV-I 5 W/m 2,0 C -4,9 C 31,9 km/h (5 Bft) 98,02 %
28.12.2016 09:00 4,1 C 86 % 1038,3 hPa 0,0 l/m 21,9 km/h (4 Bft) W-SW 0,00 h 0,026 mm 0,0 UV-I 8 W/m 2,0 C -5,0 C 34,0 km/h (5 Bft) 98,86 %
28.12.2016 10:00 4,2 C 85 % 1038,8 hPa 0,0 l/m 20,2 km/h (4 Bft) W-SW 0,00 h 0,025 mm 0,0 UV-I 14 W/m 2,0 C -4,2 C 31,0 km/h (5 Bft) 97,89 %
28.12.2016 11:00 4,1 C 86 % 1038,5 hPa 0,0 l/m 21,6 km/h (4 Bft) W-SW 0,00 h 0,025 mm 0,0 UV-I 23 W/m 2,0 C -4,9 C 32,4 km/h (5 Bft) 99,36 %
28.12.2016 12:00 4,3 C 84 % 1038,1 hPa 0,0 l/m 23,1 km/h (4 Bft) W-SW 0,00 h 0,026 mm 0,0 UV-I 33 W/m 1,8 C -5,1 C 36,9 km/h (5 Bft) 97,84 %
28.12.2016 13:00 4,5 C 83 % 1037,5 hPa 0,0 l/m 24,9 km/h (4 Bft) W-SW 0,00 h 0,051 mm 0,0 UV-I 40 W/m 1,9 C -5,5 C 39,7 km/h (6 Bft) 98,77 %
28.12.2016 14:00 4,7 C 82 % 1037,3 hPa 0,0 l/m 22,1 km/h (4 Bft) W 0,00 h 0,050 mm 0,0 UV-I 27 W/m 1,9 C -4,3 C 34,7 km/h (5 Bft) 97,01 %
28.12.2016 15:00 4,7 C 81 % 1037,9 hPa 0,0 l/m 19,8 km/h (3 Bft) W-SW 0,00 h 0,051 mm 0,0 UV-I 8 W/m 1,8 C -3,3 C 30,8 km/h (5 Bft) 98,96 %
28.12.2016 16:00 4,7 C 81 % 1038,2 hPa 0,0 l/m 20,7 km/h (4 Bft) W-SW 0,00 h 0,026 mm 0,0 UV-I 5 W/m 1,7 C -3,8 C 31,0 km/h (5 Bft) 97,79 %
28.12.2016 17:00 4,6 C 81 % 1038,5 hPa 0,0 l/m 20,8 km/h (4 Bft) W-SW 0,00 h 0,025 mm 0,0 UV-I 0 W/m 1,6 C -4,0 C 30,9 km/h (5 Bft) 98,99 %
28.12.2016 18:00 4,5 C 81 % 1038,8 hPa 0,0 l/m 18,2 km/h (3 Bft) W-SW 0,00 h 0,025 mm 0,0 UV-I 0 W/m 1,5 C -3,0 C 27,6 km/h (4 Bft) 97,15 %
28.12.2016 19:00 4,4 C 81 % 1039,0 hPa 0,0 l/m 18,3 km/h (3 Bft) W 0,00 h 0,026 mm 0,0 UV-I 0 W/m 1,4 C -3,2 C 27,5 km/h (4 Bft) 98,99 %
28.12.2016 20:00 4,2 C 82 % 1039,3 hPa 0,0 l/m 18,3 km/h (3 Bft) W-SW 0,00 h 0,025 mm 0,0 UV-I 0 W/m 1,4 C -3,3 C 28,1 km/h (4 Bft) 98,02 %
28.12.2016 21:00 4,1 C 83 % 1039,8 hPa 0,0 l/m 12,8 km/h (3 Bft) W 0,00 h 0,026 mm 0,0 UV-I 0 W/m 1,4 C -0,6 C 20,4 km/h (4 Bft) 98,72 %
28.12.2016 22:00 3,1 C 87 % 1040,5 hPa 0,4 l/m 7,4 km/h (2 Bft) O-NO 0,00 h 0,025 mm 0,0 UV-I 0 W/m 1,2 C 1,1 C 11,8 km/h (2 Bft) 97,32 %
28.12.2016 23:00 1,2 C 94 % 1040,7 hPa 0,4 l/m 4,4 km/h (1 Bft) O-NO 0,00 h 0,000 mm 0,0 UV-I 0 W/m 0,3 C 1,0 C 6,6 km/h (2 Bft) 98,50 %
29.12.2016 00:00 1,1 C 95 % 1040,5 hPa 0,4 l/m 1,4 km/h (1 Bft) SO 0,00 h 0,000 mm 0,0 UV-I 0 W/m 0,4 C 1,1 C 3,5 km/h (1 Bft) 97,89 %
29.12.2016 01:00 1,2 C 96 % 1040,3 hPa 0,0 l/m 2,1 km/h (1 Bft) S-SO 0,00 h 0,000 mm 0,0 UV-I 0 W/m 0,6 C 1,2 C 4,6 km/h (1 Bft) 98,61 %
29.12.2016 02:00 1,4 C 96 % 1040,4 hPa 0,0 l/m 2,5 km/h (1 Bft) S-SO 0,00 h 0,000 mm 0,0 UV-I 0 W/m 0,9 C 1,4 C 4,5 km/h (1 Bft) 97,64 %
29.12.2016 03:00 1,5 C 96 % 1040,2 hPa 0,0 l/m 2,7 km/h (1 Bft) S-SW 0,00 h 0,000 mm 0,0 UV-I 0 W/m 0,9 C 1,5 C 4,8 km/h (1 Bft) 98,66 %
29.12.2016 04:00 1,0 C 96 % 1040,2 hPa 0,0 l/m 4,2 km/h (1 Bft) S-SW 0,00 h 0,000 mm 0,0 UV-I 0 W/m 0,5 C 1,0 C 6,2 km/h (2 Bft) 98,29 %
29.12.2016 05:00 0,6 C 96 % 1040,4 hPa 0,0 l/m 3,2 km/h (1 Bft) S-SW 0,00 h 0,000 mm 0,0 UV-I 0 W/m 0,0 C 0,6 C 5,2 km/h (1 Bft) 98,44 %
29.12.2016 06:00 0,2 C 96 % 1040,7 hPa 0,0 l/m 2,1 km/h (1 Bft) S-SW 0,00 h 0,000 mm 0,0 UV-I 0 W/m -0,4 C 0,2 C 3,6 km/h (1 Bft) 98,62 %
29.12.2016 07:00 -0,3 C 96 % 1041,0 hPa 0,0 l/m 0,6 km/h (0 Bft) S-SW 0,00 h 0,000 mm 0,0 UV-I 6 W/m -0,8 C -0,3 C 1,5 km/h (1 Bft) 98,01 %
29.12.2016 08:00 -0,3 C 97 % 1041,5 hPa 0,0 l/m 2,1 km/h (1 Bft) O-NO 0,33 h 0,000 mm 0,0 UV-I 37 W/m -0,8 C -0,3 C 3,2 km/h (1 Bft) 99,28 %
29.12.2016 09:00 0,0 C 97 % 1041,8 hPa 0,0 l/m 1,7 km/h (1 Bft) NO 0,20 h 0,025 mm 0,0 UV-I 80 W/m -0,4 C 0,0 C 3,4 km/h (1 Bft) 97,90 %
29.12.2016 10:00 0,0 C 98 % 1042,0 hPa 0,0 l/m 2,3 km/h (1 Bft) N-NO 0,00 h 0,026 mm 0,0 UV-I 104 W/m -0,3 C 0,0 C 4,1 km/h (1 Bft) 98,57 %
29.12.2016 11:00 0,1 C 98 % 1041,9 hPa 0,2 l/m 1,3 km/h (1 Bft) O 0,07 h 0,025 mm 0,0 UV-I 123 W/m -0,2 C 0,1 C 2,8 km/h (1 Bft) 97,24 %
29.12.2016 12:00 0,1 C 98 % 1041,7 hPa 0,0 l/m 3,1 km/h (1 Bft) O-NO 0,33 h 0,051 mm 0,3 UV-I 155 W/m -0,1 C 0,1 C 5,4 km/h (1 Bft) 99,30 %
29.12.2016 13:00 0,5 C 98 % 1041,5 hPa 0,0 l/m 4,7 km/h (1 Bft) NO 0,60 h 0,051 mm 0,3 UV-I 207 W/m 0,2 C 0,3 C 8,0 km/h (2 Bft) 98,41 %
29.12.2016 14:00 -0,2 C 97 % 1041,0 hPa 0,0 l/m 5,3 km/h (1 Bft) O-NO 0,00 h 0,076 mm 0,0 UV-I 85 W/m -0,5 C -0,6 C 8,5 km/h (2 Bft) 99,20 %
29.12.2016 15:00 -0,8 C 97 % 1040,9 hPa 0,0 l/m 4,2 km/h (1 Bft) O-NO 0,00 h 0,025 mm 0,0 UV-I 32 W/m -1,2 C -1,0 C 7,0 km/h (2 Bft) 97,93 %
29.12.2016 16:00 -1,4 C 98 % 1040,9 hPa 0,0 l/m 4,5 km/h (1 Bft) NO 0,00 h 0,000 mm 0,0 UV-I 6 W/m -1,7 C -1,6 C 7,7 km/h (2 Bft) 98,86 %
29.12.2016 17:00 -1,8 C 98 % 1040,9 hPa 0,0 l/m 4,7 km/h (1 Bft) O-NO 0,00 h 0,000 mm 0,0 UV-I 0 W/m -2,1 C -2,0 C 8,5 km/h (2 Bft) 97,84 %
29.12.2016 18:00 -2,2 C 98 % 1041,0 hPa 0,0 l/m 2,7 km/h (1 Bft) O-NO 0,00 h 0,000 mm 0,0 UV-I 0 W/m -2,5 C -2,2 C 5,1 km/h (1 Bft) 98,59 %
29.12.2016 19:00 -2,4 C 97 % 1041,2 hPa 0,0 l/m 4,2 km/h (1 Bft) NO 0,00 h 0,000 mm 0,0 UV-I 0 W/m -2,8 C -2,4 C 6,9 km/h (2 Bft) 97,58 %
29.12.2016 20:00 -2,7 C 97 % 1041,2 hPa 0,0 l/m 3,8 km/h (1 Bft) O-NO 0,00 h 0,000 mm 0,0 UV-I 0 W/m -3,1 C -2,7 C 6,5 km/h (2 Bft) 98,58 %
29.12.2016 21:00 -2,7 C 97 % 1041,2 hPa 0,0 l/m 5,5 km/h (1 Bft) O-NO 0,00 h 0,000 mm 0,0 UV-I 0 W/m -3,1 C -3,1 C 9,4 km/h (2 Bft) 97,51 %
29.12.2016 22:00 -2,9 C 97 % 1040,9 hPa 0,0 l/m 5,7 km/h (1 Bft) NO 0,00 h 0,000 mm 0,0 UV-I 0 W/m -3,3 C -3,3 C 8,7 km/h (2 Bft) 99,26 %
29.12.2016 23:00 -3,1 C 97 % 1041,0 hPa 0,0 l/m 4,8 km/h (1 Bft) O-NO 0,00 h 0,000 mm 0,0 UV-I 0 W/m -3,5 C -3,3 C 7,8 km/h (2 Bft) 97,36 %
30.12.2016 00:00 -3,1 C 97 % 1041,0 hPa 0,0 l/m 5,5 km/h (1 Bft) O-NO 0,00 h 0,000 mm 0,0 UV-I 0 W/m -3,5 C -3,5 C 8,7 km/h (2 Bft) 99,14 %
30.12.2016 01:00 -3,2 C 97 % 1040,7 hPa 0,0 l/m 6,2 km/h (2 Bft) O-NO 0,00 h 0,000 mm 0,0 UV-I 0 W/m -3,6 C -4,0 C 9,7 km/h (2 Bft) 97,72 %
30.12.2016 02:00 -3,3 C 97 % 1040,6 hPa 0,0 l/m 5,7 km/h (1 Bft) O-NO 0,00 h 0,000 mm 0,0 UV-I 0 W/m -3,7 C -3,6 C 9,3 km/h (2 Bft) 99,24 %
30.12.2016 03:00 -3,4 C 97 % 1040,4 hPa 0,0 l/m 4,7 km/h (1 Bft) NO 0,00 h 0,000 mm 0,0 UV-I 0 W/m -3,8 C -3,7 C 7,9 km/h (2 Bft) 97,80 %
30.12.2016 04:00 -3,5 C 97 % 1040,4 hPa 0,0 l/m 4,0 km/h (1 Bft) O-NO 0,00 h 0,000 mm 0,0 UV-I 0 W/m -3,9 C -3,8 C 7,1 km/h (2 Bft) 99,36 %
30.12.2016 05:00 -3,6 C 97 % 1040,2 hPa 0,0 l/m 3,6 km/h (1 Bft) O-NO 0,00 h 0,000 mm 0,0 UV-I 0 W/m -4,0 C -3,6 C 6,5 km/h (2 Bft) 97,12 %
30.12.2016 06:00 -3,8 C 97 % 1040,1 hPa 0,0 l/m 3,6 km/h (1 Bft) O-NO 0,00 h 0,000 mm 0,0 UV-I 0 W/m -4,2 C -3,8 C 6,2 km/h (2 Bft) 99,43 %
30.12.2016 07:00 -4,0 C 97 % 1040,2 hPa 0,0 l/m 3,1 km/h (1 Bft) NO 0,00 h 0,000 mm 0,0 UV-I 5 W/m -4,5 C -4,0 C 5,6 km/h (1 Bft) 97,41 %
30.12.2016 08:00 -3,9 C 97 % 1040,2 hPa 0,0 l/m 1,9 km/h (1 Bft) NO 0,00 h 0,000 mm 0,0 UV-I 17 W/m -4,3 C -3,9 C 4,3 km/h (1 Bft) 99,09 %
30.12.2016 09:00 -4,0 C 97 % 1040,4 hPa 0,0 l/m 2,1 km/h (1 Bft) NO 0,00 h 0,000 mm 0,0 UV-I 49 W/m -4,5 C -4,0 C 4,1 km/h (1 Bft) 97,86 %
30.12.2016 10:00 -3,9 C 97 % 1040,3 hPa 0,0 l/m 1,2 km/h (1 Bft) W-NW 0,00 h 0,025 mm 0,0 UV-I 77 W/m -4,3 C -3,9 C 3,2 km/h (1 Bft) 99,03 %
30.12.2016 11:00 -3,8 C 97 % 1040,2 hPa 0,0 l/m 1,8 km/h (1 Bft) W 0,27 h 0,026 mm 0,0 UV-I 148 W/m -4,2 C -3,8 C 3,9 km/h (1 Bft) 97,68 %
30.12.2016 12:00 -3,2 C 97 % 1039,6 hPa 0,0 l/m 2,5 km/h (1 Bft) W-SW 0,27 h 0,051 mm 0,2 UV-I 173 W/m -3,7 C -3,2 C 5,1 km/h (1 Bft) 98,93 %
30.12.2016 13:00 -3,0 C 96 % 1039,1 hPa 0,0 l/m 0,6 km/h (0 Bft) W-SW 0,20 h 0,050 mm 0,0 UV-I 128 W/m -3,5 C -3,0 C 1,4 km/h (1 Bft) 97,57 %
30.12.2016 14:00 -2,0 C 94 % 1039,0 hPa 0,0 l/m 0,0 km/h (0 Bft) N 0,90 h 0,051 mm 0,0 UV-I 160 W/m -2,8 C -2,0 C 0,1 km/h (0 Bft) 99,45 %
30.12.2016 15:00 -1,7 C 93 % 1038,7 hPa 0,0 l/m 0,0 km/h (0 Bft) N 1,00 h 0,051 mm 0,0 UV-I 81 W/m -2,6 C -1,7 C 0,0 km/h (0 Bft) 97,10 %
30.12.2016 16:00 -2,3 C 95 % 1038,7 hPa 0,0 l/m 0,0 km/h (0 Bft) N 0,13 h 0,025 mm 0,0 UV-I 11 W/m -3,1 C -2,3 C 0,0 km/h (0 Bft) 97,56 %
30.12.2016 17:00 -3,0 C 96 % 1038,7 hPa 0,0 l/m 0,0 km/h (0 Bft) N 0,00 h 0,000 mm 0,0 UV-I 0 W/m -3,5 C -3,0 C 0,0 km/h (0 Bft) 99,01 %
30.12.2016 18:00 -3,7 C 96 % 1038,5 hPa 0,0 l/m 0,0 km/h (0 Bft) N 0,00 h 0,000 mm 0,0 UV-I 0 W/m -4,2 C -3,7 C 0,0 km/h (0 Bft) 97,40 %
30.12.2016 19:00 -4,2 C 96 % 1038,2 hPa 0,0 l/m 0,0 km/h (0 Bft) N 0,00 h 0,000 mm 0,0 UV-I 0 W/m -4,8 C -4,2 C 0,0 km/h (0 Bft) 99,45 %
30.12.2016 20:00 -4,5 C 96 % 1038,6 hPa 0,0 l/m 0,0 km/h (0 Bft) N 0,00 h 0,000 mm 0,0 UV-I 0 W/m -5,1 C -4,5 C 0,0 km/h (0 Bft) 97,85 %
30.12.2016 21:00 -5,0 C 96 % 1038,7 hPa 0,0 l/m 0,0 km/h (0 Bft) N 0,00 h 0,000 mm 0,0 UV-I 0 W/m -5,6 C -5,0 C 0,0 km/h (0 Bft) 98,50 %
30.12.2016 22:00 -5,5 C 96 % 1038,7 hPa 0,0 l/m 0,0 km/h (0 Bft) N 0,00 h 0,000 mm 0,0 UV-I 0 W/m -6,0 C -5,5 C 0,0 km/h (0 Bft) 97,88 %
30.12.2016 23:00 -5,0 C 96 % 1038,7 hPa 0,0 l/m 0,0 km/h (0 Bft) N 0,00 h 0,000 mm 0,0 UV-I 0 W/m -5,5 C -5,0 C 0,0 km/h (0 Bft) 98,51 %
31.12.2016 00:00 -5,1 C 96 % 1038,3 hPa 0,0 l/m 0,0 km/h (0 Bft) N 0,00 h 0,000 mm 0,0 UV-I 0 W/m -5,6 C -5,1 C 0,0 km/h (0 Bft) 98,28 %
31.12.2016 01:00 -5,1 C 96 % 1038,0 hPa 0,0 l/m 0,0 km/h (0 Bft) N 0,00 h 0,000 mm 0,0 UV-I 0 W/m -5,7 C -5,1 C 0,0 km/h (0 Bft) 98,62 %
31.12.2016 02:00 -5,1 C 96 % 1037,6 hPa 0,0 l/m 0,0 km/h (0 Bft) N 0,00 h 0,000 mm 0,0 UV-I 0 W/m -5,6 C -5,1 C 0,0 km/h (0 Bft) 98,58 %
31.12.2016 03:00 -4,8 C 96 % 1037,0 hPa 0,0 l/m 0,0 km/h (0 Bft) N 0,00 h 0,000 mm 0,0 UV-I 0 W/m -5,4 C -4,8 C 0,0 km/h (0 Bft) 98,14 %
31.12.2016 04:00 -4,8 C 96 % 1036,6 hPa 0,0 l/m 0,0 km/h (0 Bft) N 0,00 h 0,000 mm 0,0 UV-I 0 W/m -5,3 C -4,8 C 0,0 km/h (0 Bft) 98,50 %
31.12.2016 05:00 -4,7 C 96 % 1036,4 hPa 0,0 l/m 0,0 km/h (0 Bft) N 0,00 h 0,000 mm 0,0 UV-I 0 W/m -5,3 C -4,7 C 0,0 km/h (0 Bft) 98,31 %
31.12.2016 06:00 -5,0 C 96 % 1036,3 hPa 0,0 l/m 0,0 km/h (0 Bft) N 0,00 h 0,000 mm 0,0 UV-I 0 W/m -5,5 C -5,0 C 0,0 km/h (0 Bft) 98,73 %
31.12.2016 07:00 -5,1 C 96 % 1036,4 hPa 0,0 l/m 0,0 km/h (0 Bft) N 0,00 h 0,000 mm 0,0 UV-I 5 W/m -5,6 C -5,1 C 0,0 km/h (0 Bft) 98,81 %
31.12.2016 08:00 -5,1 C 96 % 1036,6 hPa 0,0 l/m 0,0 km/h (0 Bft) N 0,00 h 0,000 mm 0,0 UV-I 19 W/m -5,7 C -5,1 C 0,0 km/h (0 Bft) 98,47 %
31.12.2016 09:00 -5,0 C 96 % 1036,8 hPa 0,0 l/m 0,0 km/h (0 Bft) N 0,00 h 0,000 mm 0,0 UV-I 59 W/m -5,6 C -5,0 C 0,0 km/h (0 Bft) 98,12 %
31.12.2016 10:00 -4,7 C 96 % 1037,0 hPa 0,0 l/m 0,0 km/h (0 Bft) N 0,00 h 0,025 mm 0,0 UV-I 89 W/m -5,2 C -4,7 C 0,0 km/h (0 Bft) 98,75 %
31.12.2016 11:00 -4,5 C 96 % 1036,5 hPa 0,0 l/m 0,0 km/h (0 Bft) N 0,00 h 0,026 mm 0,0 UV-I 123 W/m -5,0 C -4,5 C 0,0 km/h (0 Bft) 98,08 %
31.12.2016 12:00 -4,2 C 96 % 1035,8 hPa 0,0 l/m 0,0 km/h (0 Bft) N 0,00 h 0,025 mm 0,0 UV-I 149 W/m -4,7 C -4,2 C 0,0 km/h (0 Bft) 98,35 %
31.12.2016 13:00 -3,8 C 97 % 1035,2 hPa 0,0 l/m 0,0 km/h (0 Bft) N 0,23 h 0,051 mm 0,0 UV-I 136 W/m -4,2 C -3,8 C 0,0 km/h (0 Bft) 97,95 %
31.12.2016 14:00 -3,6 C 97 % 1034,6 hPa 0,0 l/m 0,0 km/h (0 Bft) N 0,00 h 0,051 mm 0,0 UV-I 73 W/m -4,0 C -3,6 C 0,0 km/h (0 Bft) 99,69 %
31.12.2016 15:00 -3,7 C 97 % 1034,1 hPa 0,0 l/m 0,0 km/h (0 Bft) N 0,00 h 0,025 mm 0,0 UV-I 31 W/m -4,1 C -3,7 C 0,0 km/h (0 Bft) 98,15 %
31.12.2016 16:00 -3,9 C 97 % 1033,9 hPa 0,0 l/m 0,0 km/h (0 Bft) N 0,03 h 0,000 mm 0,0 UV-I 7 W/m -4,4 C -3,9 C 0,0 km/h (0 Bft) 99,06 %
31.12.2016 17:00 -4,1 C 96 % 1033,6 hPa 0,0 l/m 0,0 km/h (0 Bft) N 0,00 h 0,000 mm 0,0 UV-I 0 W/m -4,7 C -4,1 C 0,0 km/h (0 Bft) 98,22 %
31.12.2016 18:00 -4,2 C 97 % 1033,5 hPa 0,0 l/m 0,0 km/h (0 Bft) N 0,00 h 0,000 mm 0,0 UV-I 0 W/m -4,6 C -4,2 C 0,0 km/h (0 Bft) 99,43 %
31.12.2016 19:00 -4,3 C 96 % 1033,2 hPa 0,0 l/m 0,0 km/h (0 Bft) N 0,00 h 0,000 mm 0,0 UV-I 0 W/m -4,8 C -4,3 C 0,0 km/h (0 Bft) 97,67 %
31.12.2016 20:00 -4,4 C 96 % 1032,6 hPa 0,0 l/m 0,0 km/h (0 Bft) N 0,00 h 0,000 mm 0,0 UV-I 0 W/m -4,9 C -4,4 C 0,0 km/h (0 Bft) 99,36 %
31.12.2016 21:00 -4,4 C 96 % 1032,1 hPa 0,0 l/m 0,0 km/h (0 Bft) N 0,00 h 0,000 mm 0,0 UV-I 0 W/m -4,9 C -4,4 C 0,0 km/h (0 Bft) 97,46 %
31.12.2016 22:00 -4,6 C 96 % 1031,6 hPa 0,0 l/m 0,0 km/h (0 Bft) N 0,00 h 0,000 mm 0,0 UV-I 0 W/m -5,1 C -4,6 C 0,0 km/h (0 Bft) 99,31 %
31.12.2016 23:00 -4,7 C 96 % 1031,0 hPa 0,0 l/m 0,0 km/h (0 Bft) N 0,00 h 0,000 mm 0,0 UV-I 0 W/m -5,3 C -4,7 C 0,0 km/h (0 Bft) 97,86 %
01.01.2017 00:00 -4,9 C 96 % 1030,2 hPa 0,0 l/m 0,0 km/h (0 Bft) N 0,00 h 0,000 mm 0,0 UV-I 0 W/m -5,4 C -4,9 C 0,0 km/h (0 Bft) 95,66 %
01.01.2017 01:00 -5,0 C 96 % 1029,5 hPa 0,0 l/m 0,0 km/h (0 Bft) N 0,00 h 0,000 mm 0,0 UV-I 0 W/m -5,6 C -5,0 C 0,0 km/h (0 Bft) 98,01 %
01.01.2017 02:00 -5,2 C 96 % 1028,9 hPa 0,0 l/m 0,0 km/h (0 Bft) N 0,00 h 0,000 mm 0,0 UV-I 0 W/m -5,8 C -5,2 C 0,0 km/h (0 Bft) 98,95 %
01.01.2017 03:00 -5,6 C 96 % 1028,0 hPa 0,0 l/m 0,0 km/h (0 Bft) N 0,00 h 0,000 mm 0,0 UV-I 0 W/m -6,1 C -5,6 C 0,0 km/h (0 Bft) 97,93 %
01.01.2017 04:00 -5,6 C 96 % 1027,4 hPa 0,0 l/m 0,0 km/h (0 Bft) N 0,00 h 0,000 mm 0,0 UV-I 0 W/m -6,1 C -5,6 C 0,0 km/h (0 Bft) 99,32 %
01.01.2017 05:00 -5,7 C 96 % 1026,9 hPa 0,0 l/m 0,0 km/h (0 Bft) N 0,00 h 0,000 mm 0,0 UV-I 0 W/m -6,2 C -5,7 C 0,0 km/h (0 Bft) 97,73 %
01.01.2017 06:00 -5,8 C 96 % 1026,5 hPa 0,0 l/m 0,0 km/h (0 Bft) N 0,00 h 0,000 mm 0,0 UV-I 0 W/m -6,3 C -5,8 C 0,0 km/h (0 Bft) 99,01 %
01.01.2017 07:00 -5,8 C 96 % 1026,2 hPa 0,0 l/m 0,0 km/h (0 Bft) N 0,00 h 0,000 mm 0,0 UV-I 5 W/m -6,3 C -5,8 C 0,0 km/h (0 Bft) 97,67 %
01.01.2017 08:00 -5,8 C 96 % 1026,0 hPa 0,0 l/m 0,0 km/h (0 Bft) N 0,00 h 0,000 mm 0,0 UV-I 19 W/m -6,4 C -5,8 C 0,0 km/h (0 Bft) 98,87 %
01.01.2017 09:00 -5,7 C 96 % 1025,8 hPa 0,0 l/m 0,0 km/h (0 Bft) N 0,00 h 0,000 mm 0,0 UV-I 51 W/m -6,3 C -5,7 C 0,0 km/h (0 Bft) 98,16 %
01.01.2017 10:00 -5,4 C 96 % 1025,4 hPa 0,0 l/m 0,0 km/h (0 Bft) N 0,00 h 0,025 mm 0,0 UV-I 100 W/m -5,9 C -5,4 C 0,0 km/h (0 Bft) 98,48 %
01.01.2017 11:00 -4,9 C 96 % 1024,6 hPa 0,0 l/m 0,0 km/h (0 Bft) N 0,00 h 0,026 mm 0,0 UV-I 110 W/m -5,5 C -4,9 C 0,0 km/h (0 Bft) 98,23 %
01.01.2017 12:00 -4,5 C 96 % 1023,6 hPa 0,0 l/m 0,0 km/h (0 Bft) N 0,00 h 0,025 mm 0,0 UV-I 118 W/m -5,0 C -4,5 C 0,0 km/h (0 Bft) 98,56 %
01.01.2017 13:00 -4,3 C 96 % 1022,8 hPa 0,0 l/m 0,0 km/h (0 Bft) N 0,00 h 0,026 mm 0,0 UV-I 114 W/m -4,8 C -4,3 C 0,0 km/h (0 Bft) 98,78 %
01.01.2017 14:00 -4,1 C 96 % 1022,2 hPa 0,0 l/m 0,0 km/h (0 Bft) N 0,00 h 0,025 mm 0,0 UV-I 87 W/m -4,5 C -4,1 C 0,0 km/h (0 Bft) 98,20 %
01.01.2017 15:00 -4,0 C 97 % 1022,0 hPa 0,0 l/m 0,0 km/h (0 Bft) N 0,00 h 0,025 mm 0,0 UV-I 37 W/m -4,5 C -4,0 C 0,0 km/h (0 Bft) 98,71 %
01.01.2017 16:00 -4,4 C 96 % 1021,7 hPa 0,0 l/m 0,0 km/h (0 Bft) N 0,03 h 0,000 mm 0,0 UV-I 8 W/m -4,9 C -4,4 C 0,0 km/h (0 Bft) 98,61 %
01.01.2017 17:00 -4,7 C 96 % 1021,6 hPa 0,0 l/m 0,0 km/h (0 Bft) N 0,00 h 0,000 mm 0,0 UV-I 0 W/m -5,3 C -4,7 C 0,0 km/h (0 Bft) 99,50 %
01.01.2017 18:00 -5,0 C 96 % 1021,6 hPa 0,0 l/m 0,0 km/h (0 Bft) N 0,00 h 0,000 mm 0,0 UV-I 0 W/m -5,5 C -5,0 C 0,0 km/h (0 Bft) 97,93 %
01.01.2017 19:00 -5,3 C 96 % 1021,5 hPa 0,0 l/m 0,0 km/h (0 Bft) N 0,00 h 0,000 mm 0,0 UV-I 0 W/m -5,8 C -5,3 C 0,0 km/h (0 Bft) 99,19 %
01.01.2017 20:00 -5,6 C 96 % 1021,3 hPa 0,0 l/m 0,0 km/h (0 Bft) N 0,00 h 0,000 mm 0,0 UV-I 0 W/m -6,1 C -5,6 C 0,0 km/h (0 Bft) 97,61 %
01.01.2017 21:00 -5,8 C 96 % 1021,4 hPa 0,0 l/m 0,0 km/h (0 Bft) N 0,00 h 0,000 mm 0,0 UV-I 0 W/m -6,4 C -5,8 C 0,0 km/h (0 Bft) 99,65 %
01.01.2017 22:00 -6,1 C 96 % 1021,2 hPa 0,0 l/m 0,0 km/h (0 Bft) N 0,00 h 0,000 mm 0,0 UV-I 0 W/m -6,7 C -6,1 C 0,0 km/h (0 Bft) 97,84 %
01.01.2017 23:00 -6,1 C 96 % 1021,2 hPa 0,0 l/m 0,0 km/h (0 Bft) N 0,00 h 0,000 mm 0,0 UV-I 0 W/m -6,7 C -6,1 C 0,0 km/h (0 Bft) 99,22 %
Min-Datum _ 01.01.17 27.12.16 01.01.17 - 26.12.16 - - - - - 01.01.17 27.12.16 26.12.16 01.01.17
_ Min-Zeit 22:18 18:42 22:12 - 12:56 - - - - - 22:18 08:46 12:56 00:02
Minimum _ -6,1 C 74 % 1021,1 hPa - 0,0 km/h (0 Bft) - - - - - -6,8 C -10,3 C 0,0 km/h (0 Bft) 7,69 %
Max-Datum _ 26.12.16 29.12.16 29.12.16 26.12.16 27.12.16 - 31.12.16 27.12.16 29.12.16 29.12.16 26.12.16 26.12.16 27.12.16 26.12.16
_ Max-Zeit 10:40 09:40 10:02 20:02 21:46 - 13:56 12:00 13:06 13:10 13:18 10:44 23:00 00:14
Maximum _ 9,7 C 98 % 1042,1 hPa 0,6 l/m 35,3 km/h
W-SW (5 Bft)
- 0,07 h 0,101 mm 0,5 UV-I 380 W/m 7,9 C 9,7 C 56,3 km/h
W-SW (7 Bft)
100,00 %
Durchschnitt _ 0,3 C 91 % 1034,4 hPa #3,4 l/m 8,1 km/h (2 Bft) W-SW #5:56 h #3,174 mm 0,2 UV-I 61 W/m -1,1 C -2,5 C 12,7 km/h (3 Bft) 98,37 %